DLH5NF EDDM-EDDG
Flight info
| Callsign | DLH5NF |
|---|---|
| Flight time | 0h 51m |
| Altitude | 32000 |
| Route | INPUD2N INPUD Y102 TESDU DCT AMETU T852 EKSAK/N0376F260 T852 KULIX/N0367F240 T842 ADEMI/N0361F230 M170 HMM HMM1A |
| Aircraft | A320/M-SDE3FGHIRWY/LB1 |
Departure
| Time | 2026-05-05 16:14 |
|---|---|
| Airport | Munich Airport (EDDM) |
Arrival
| Time | 2026-05-05 17:05 |
|---|---|
| Airport | Münster Osnabrück Airport (EDDG) |
| Time | Latitude | Longitude | Altitude | Speed | Heading |
|---|---|---|---|---|---|
| 2026-05-05 16:05 | 48.35814 | 11.79234 | 1474 ft | 0 kts | 263° |
| 2026-05-05 16:06 | 48.35816 | 11.79251 | 1474 ft | 2 kts | 263° |
| 2026-05-05 16:06 | 48.35818 | 11.79273 | 1473 ft | 2 kts | 263° |
| 2026-05-05 16:07 | 48.35820 | 11.79296 | 1473 ft | 2 kts | 263° |
| 2026-05-05 16:07 | 48.35822 | 11.79318 | 1473 ft | 2 kts | 263° |
| 2026-05-05 16:07 | 48.35823 | 11.79340 | 1473 ft | 2 kts | 263° |
| 2026-05-05 16:07 | 48.35825 | 11.79363 | 1472 ft | 2 kts | 262° |
| 2026-05-05 16:08 | 48.35825 | 11.79376 | 1472 ft | 0 kts | 290° |
| 2026-05-05 16:09 | 48.35826 | 11.79375 | 1472 ft | 0 kts | 294° |
| 2026-05-05 16:09 | 48.35838 | 11.79368 | 1472 ft | 5 kts | 356° |
| 2026-05-05 16:09 | 48.35895 | 11.79425 | 1471 ft | 13 kts | 59° |
| 2026-05-05 16:10 | 48.35975 | 11.79496 | 1470 ft | 16 kts | 353° |
| 2026-05-05 16:10 | 48.36095 | 11.79493 | 1469 ft | 17 kts | 31° |
| 2026-05-05 16:10 | 48.36118 | 11.79662 | 1468 ft | 18 kts | 84° |
| 2026-05-05 16:10 | 48.36134 | 11.79869 | 1467 ft | 21 kts | 84° |
| 2026-05-05 16:11 | 48.36152 | 11.80105 | 1466 ft | 24 kts | 84° |
| 2026-05-05 16:11 | 48.36219 | 11.80972 | 1460 ft | 30 kts | 82° |
| 2026-05-05 16:12 | 48.36248 | 11.81256 | 1458 ft | 18 kts | 50° |
| 2026-05-05 16:12 | 48.36440 | 11.81121 | 1459 ft | 17 kts | 292° |
| 2026-05-05 16:13 | 48.36563 | 11.80585 | 1461 ft | 19 kts | 272° |
| 2026-05-05 16:13 | 48.36538 | 11.80158 | 1463 ft | 74 kts | 263° |
| 2026-05-05 16:13 | 48.36455 | 11.79052 | 1469 ft | 136 kts | 263° |
| 2026-05-05 16:14 | 48.36247 | 11.75828 | 2452 ft | 159 kts | 264° |
| 2026-05-05 16:14 | 48.35938 | 11.72503 | 3592 ft | 171 kts | 264° |
| 2026-05-05 16:15 | 48.35695 | 11.68611 | 4288 ft | 203 kts | 282° |
| 2026-05-05 16:15 | 48.37750 | 11.65365 | 4934 ft | 249 kts | 342° |
| 2026-05-05 16:16 | 48.41362 | 11.64342 | 6103 ft | 274 kts | 348° |
| 2026-05-05 16:16 | 48.45129 | 11.63257 | 7632 ft | 283 kts | 347° |
| 2026-05-05 16:17 | 48.49042 | 11.62108 | 9135 ft | 293 kts | 348° |
| 2026-05-05 16:17 | 48.51050 | 11.61518 | 9898 ft | 298 kts | 348° |
| 2026-05-05 16:18 | 48.55172 | 11.60301 | 11421 ft | 306 kts | 346° |
| 2026-05-05 16:18 | 48.57246 | 11.59517 | 12147 ft | 309 kts | 342° |
| 2026-05-05 16:18 | 48.61459 | 11.57236 | 13095 ft | 334 kts | 337° |
| 2026-05-05 16:19 | 48.63658 | 11.55948 | 13741 ft | 339 kts | 337° |
| 2026-05-05 16:19 | 48.65833 | 11.54678 | 14413 ft | 343 kts | 337° |
| 2026-05-05 16:19 | 48.70334 | 11.52065 | 15715 ft | 350 kts | 337° |
| 2026-05-05 16:20 | 48.74912 | 11.49412 | 16945 ft | 357 kts | 338° |
| 2026-05-05 16:20 | 48.79574 | 11.46707 | 18118 ft | 364 kts | 337° |
| 2026-05-05 16:21 | 48.84335 | 11.43934 | 19224 ft | 371 kts | 338° |
| 2026-05-05 16:22 | 48.91684 | 11.39647 | 20795 ft | 383 kts | 338° |
| 2026-05-05 16:22 | 48.96684 | 11.36724 | 21848 ft | 388 kts | 338° |
| 2026-05-05 16:23 | 49.01737 | 11.33762 | 22835 ft | 395 kts | 338° |
| 2026-05-05 16:23 | 49.04329 | 11.32239 | 23306 ft | 398 kts | 338° |
| 2026-05-05 16:23 | 49.09535 | 11.29179 | 24253 ft | 405 kts | 338° |
| 2026-05-05 16:24 | 49.12163 | 11.27633 | 24691 ft | 408 kts | 338° |
| 2026-05-05 16:24 | 49.14836 | 11.26057 | 25144 ft | 411 kts | 338° |
| 2026-05-05 16:24 | 49.20183 | 11.22897 | 26010 ft | 416 kts | 338° |
| 2026-05-05 16:25 | 49.22880 | 11.21319 | 26419 ft | 419 kts | 339° |
| 2026-05-05 16:25 | 49.28404 | 11.18205 | 27234 ft | 424 kts | 339° |
| 2026-05-05 16:25 | 49.31166 | 11.16650 | 27624 ft | 427 kts | 339° |
| 2026-05-05 16:26 | 49.36752 | 11.13493 | 28381 ft | 432 kts | 339° |
| 2026-05-05 16:26 | 49.42434 | 11.10262 | 29103 ft | 436 kts | 339° |
| 2026-05-05 16:27 | 49.45273 | 11.08646 | 29441 ft | 439 kts | 339° |
| 2026-05-05 16:27 | 49.48160 | 11.06999 | 29721 ft | 442 kts | 339° |
| 2026-05-05 16:27 | 49.51013 | 11.05226 | 29974 ft | 446 kts | 335° |
| 2026-05-05 16:27 | 49.53807 | 11.03170 | 30293 ft | 447 kts | 331° |
| 2026-05-05 16:28 | 49.56537 | 11.00822 | 30651 ft | 448 kts | 328° |
| 2026-05-05 16:28 | 49.59184 | 10.98352 | 31003 ft | 448 kts | 327° |
| 2026-05-05 16:28 | 49.61815 | 10.95853 | 31342 ft | 449 kts | 327° |
| 2026-05-05 16:28 | 49.64484 | 10.93315 | 31658 ft | 451 kts | 327° |
| 2026-05-05 16:29 | 49.67172 | 10.90764 | 31771 ft | 453 kts | 327° |
| 2026-05-05 16:29 | 49.69834 | 10.88240 | 31773 ft | 453 kts | 327° |
| 2026-05-05 16:29 | 49.75225 | 10.83135 | 31781 ft | 454 kts | 327° |
| 2026-05-05 16:30 | 49.80584 | 10.78051 | 31781 ft | 454 kts | 327° |
| 2026-05-05 16:30 | 49.85922 | 10.72975 | 31780 ft | 454 kts | 327° |
| 2026-05-05 16:31 | 49.91315 | 10.67831 | 31777 ft | 454 kts | 327° |
| 2026-05-05 16:31 | 49.96645 | 10.62730 | 31773 ft | 454 kts | 327° |
| 2026-05-05 16:32 | 50.02038 | 10.57555 | 31776 ft | 455 kts | 327° |
| 2026-05-05 16:32 | 50.07386 | 10.52407 | 31774 ft | 456 kts | 327° |
| 2026-05-05 16:33 | 50.12795 | 10.47186 | 31773 ft | 456 kts | 327° |
| 2026-05-05 16:33 | 50.17915 | 10.41538 | 31775 ft | 454 kts | 318° |
| 2026-05-05 16:34 | 50.22461 | 10.34798 | 31775 ft | 450 kts | 308° |
| 2026-05-05 16:34 | 50.26306 | 10.27151 | 31770 ft | 448 kts | 301° |
| 2026-05-05 16:35 | 50.29849 | 10.19158 | 31770 ft | 448 kts | 301° |
| 2026-05-05 16:35 | 50.33389 | 10.11146 | 31773 ft | 449 kts | 301° |
| 2026-05-05 16:36 | 50.36944 | 10.03124 | 31774 ft | 449 kts | 301° |
| 2026-05-05 16:36 | 50.40495 | 9.95097 | 31774 ft | 449 kts | 301° |
| 2026-05-05 16:37 | 50.44064 | 9.87015 | 31778 ft | 449 kts | 301° |
| 2026-05-05 16:37 | 50.47577 | 9.79037 | 31782 ft | 448 kts | 301° |
| 2026-05-05 16:38 | 50.51116 | 9.70971 | 31786 ft | 449 kts | 301° |
| 2026-05-05 16:38 | 50.54649 | 9.62896 | 31790 ft | 448 kts | 301° |
| 2026-05-05 16:39 | 50.58161 | 9.54840 | 31788 ft | 449 kts | 301° |
| 2026-05-05 16:39 | 50.61690 | 9.46726 | 31766 ft | 449 kts | 301° |
| 2026-05-05 16:40 | 50.63445 | 9.42681 | 31496 ft | 448 kts | 301° |
| 2026-05-05 16:40 | 50.65169 | 9.38706 | 31224 ft | 445 kts | 301° |
| 2026-05-05 16:40 | 50.66914 | 9.34669 | 30943 ft | 442 kts | 300° |
| 2026-05-05 16:40 | 50.68635 | 9.30686 | 30665 ft | 439 kts | 300° |
| 2026-05-05 16:41 | 50.70330 | 9.26754 | 30393 ft | 438 kts | 300° |
| 2026-05-05 16:41 | 50.72039 | 9.22778 | 30120 ft | 438 kts | 300° |
| 2026-05-05 16:41 | 50.73744 | 9.18809 | 29846 ft | 438 kts | 300° |
| 2026-05-05 16:41 | 50.75438 | 9.14860 | 29577 ft | 438 kts | 300° |
| 2026-05-05 16:42 | 50.77144 | 9.10883 | 29304 ft | 436 kts | 300° |
| 2026-05-05 16:42 | 50.78842 | 9.06916 | 29032 ft | 434 kts | 300° |
| 2026-05-05 16:42 | 50.80530 | 9.02962 | 28760 ft | 432 kts | 300° |
| 2026-05-05 16:42 | 50.82181 | 8.99092 | 28493 ft | 430 kts | 301° |
| 2026-05-05 16:43 | 50.83940 | 8.95271 | 28221 ft | 431 kts | 308° |
| 2026-05-05 16:43 | 50.86199 | 8.92096 | 27939 ft | 433 kts | 320° |
| 2026-05-05 16:43 | 50.88604 | 8.89297 | 27630 ft | 433 kts | 322° |
| 2026-05-05 16:43 | 50.91024 | 8.86541 | 27151 ft | 430 kts | 322° |
| 2026-05-05 16:44 | 50.93437 | 8.83760 | 26594 ft | 427 kts | 321° |
| 2026-05-05 16:44 | 50.95802 | 8.80997 | 26005 ft | 425 kts | 321° |
| 2026-05-05 16:44 | 50.98162 | 8.78209 | 25401 ft | 424 kts | 321° |
| 2026-05-05 16:44 | 51.00505 | 8.75421 | 24788 ft | 422 kts | 321° |
| 2026-05-05 16:45 | 51.02853 | 8.72613 | 24207 ft | 419 kts | 321° |
| 2026-05-05 16:45 | 51.05164 | 8.69844 | 23735 ft | 414 kts | 321° |
| 2026-05-05 16:45 | 51.07431 | 8.67121 | 23314 ft | 408 kts | 321° |
| 2026-05-05 16:45 | 51.09654 | 8.64444 | 22885 ft | 403 kts | 321° |
| 2026-05-05 16:46 | 51.11860 | 8.61786 | 22460 ft | 398 kts | 321° |
| 2026-05-05 16:46 | 51.14046 | 8.59146 | 22017 ft | 394 kts | 321° |
| 2026-05-05 16:46 | 51.16224 | 8.56514 | 21598 ft | 389 kts | 321° |
| 2026-05-05 16:46 | 51.18372 | 8.53916 | 21149 ft | 386 kts | 321° |
| 2026-05-05 16:47 | 51.20471 | 8.51372 | 20729 ft | 383 kts | 321° |
| 2026-05-05 16:47 | 51.22568 | 8.48827 | 20330 ft | 379 kts | 321° |
| 2026-05-05 16:47 | 51.24670 | 8.46273 | 19892 ft | 376 kts | 322° |
| 2026-05-05 16:47 | 51.26728 | 8.43769 | 19486 ft | 373 kts | 322° |
| 2026-05-05 16:48 | 51.28764 | 8.41290 | 19088 ft | 370 kts | 322° |
| 2026-05-05 16:48 | 51.30812 | 8.38792 | 18672 ft | 366 kts | 322° |
| 2026-05-05 16:48 | 51.32818 | 8.36344 | 18253 ft | 364 kts | 322° |
| 2026-05-05 16:48 | 51.34798 | 8.33926 | 17861 ft | 361 kts | 321° |
| 2026-05-05 16:49 | 51.36778 | 8.31506 | 17452 ft | 359 kts | 321° |
| 2026-05-05 16:49 | 51.38758 | 8.29083 | 17041 ft | 356 kts | 321° |
| 2026-05-05 16:49 | 51.40724 | 8.26672 | 16624 ft | 354 kts | 321° |
| 2026-05-05 16:49 | 51.42659 | 8.24298 | 16212 ft | 352 kts | 321° |
| 2026-05-05 16:50 | 51.44584 | 8.21933 | 15812 ft | 350 kts | 321° |
| 2026-05-05 16:50 | 51.46499 | 8.19577 | 15417 ft | 348 kts | 321° |
| 2026-05-05 16:50 | 51.48408 | 8.17228 | 15004 ft | 347 kts | 321° |
| 2026-05-05 16:50 | 51.50334 | 8.14852 | 14603 ft | 345 kts | 321° |
| 2026-05-05 16:51 | 51.52209 | 8.12538 | 14209 ft | 343 kts | 321° |
| 2026-05-05 16:51 | 51.54097 | 8.10206 | 13794 ft | 341 kts | 321° |
| 2026-05-05 16:51 | 51.55949 | 8.07915 | 13387 ft | 339 kts | 321° |
| 2026-05-05 16:51 | 51.57815 | 8.05607 | 12986 ft | 337 kts | 321° |
| 2026-05-05 16:52 | 51.59666 | 8.03315 | 12584 ft | 335 kts | 321° |
| 2026-05-05 16:52 | 51.61499 | 8.01043 | 12179 ft | 332 kts | 321° |
| 2026-05-05 16:52 | 51.63308 | 7.98799 | 11771 ft | 330 kts | 321° |
| 2026-05-05 16:52 | 51.65114 | 7.96551 | 11359 ft | 328 kts | 321° |
| 2026-05-05 16:53 | 51.66896 | 7.94333 | 10971 ft | 325 kts | 321° |
| 2026-05-05 16:53 | 51.68681 | 7.92110 | 10571 ft | 323 kts | 321° |
| 2026-05-05 16:53 | 51.70453 | 7.89899 | 10158 ft | 320 kts | 321° |
| 2026-05-05 16:53 | 51.72191 | 7.87732 | 9902 ft | 312 kts | 321° |
| 2026-05-05 16:54 | 51.73865 | 7.85644 | 9838 ft | 298 kts | 321° |
| 2026-05-05 16:54 | 51.75456 | 7.83656 | 9708 ft | 287 kts | 321° |
| 2026-05-05 16:54 | 51.77025 | 7.81690 | 9383 ft | 285 kts | 321° |
| 2026-05-05 16:54 | 51.78580 | 7.79738 | 9020 ft | 284 kts | 321° |
| 2026-05-05 16:55 | 51.80127 | 7.77796 | 8670 ft | 281 kts | 321° |
| 2026-05-05 16:55 | 51.81668 | 7.75860 | 8356 ft | 279 kts | 321° |
| 2026-05-05 16:55 | 51.83199 | 7.73937 | 8029 ft | 277 kts | 322° |
| 2026-05-05 16:55 | 51.84698 | 7.72045 | 7710 ft | 275 kts | 321° |
| 2026-05-05 16:56 | 51.86118 | 7.70034 | 7392 ft | 273 kts | 316° |
| 2026-05-05 16:56 | 51.87437 | 7.67856 | 7092 ft | 271 kts | 314° |
| 2026-05-05 16:56 | 51.88726 | 7.65652 | 6791 ft | 269 kts | 314° |
| 2026-05-05 16:56 | 51.89997 | 7.63467 | 6462 ft | 267 kts | 314° |
| 2026-05-05 16:57 | 51.91279 | 7.61262 | 6114 ft | 267 kts | 314° |
| 2026-05-05 16:57 | 51.92533 | 7.59104 | 5785 ft | 266 kts | 314° |
| 2026-05-05 16:57 | 51.93807 | 7.56910 | 5462 ft | 265 kts | 314° |
| 2026-05-05 16:57 | 51.95050 | 7.54769 | 5145 ft | 263 kts | 315° |
| 2026-05-05 16:58 | 51.96286 | 7.52639 | 4996 ft | 254 kts | 315° |
| 2026-05-05 16:58 | 51.97458 | 7.50602 | 4959 ft | 241 kts | 313° |
| 2026-05-05 16:58 | 51.98520 | 7.48511 | 4726 ft | 238 kts | 311° |
| 2026-05-05 16:58 | 51.99543 | 7.46473 | 4504 ft | 234 kts | 311° |
| 2026-05-05 16:59 | 52.00550 | 7.44448 | 4301 ft | 229 kts | 312° |
| 2026-05-05 16:59 | 52.01551 | 7.42443 | 4101 ft | 224 kts | 312° |
| 2026-05-05 16:59 | 52.02523 | 7.40506 | 3908 ft | 223 kts | 313° |
| 2026-05-05 16:59 | 52.03592 | 7.38724 | 3681 ft | 218 kts | 333° |
| 2026-05-05 17:00 | 52.05012 | 7.38146 | 3488 ft | 210 kts | 10° |
| 2026-05-05 17:00 | 52.06297 | 7.39077 | 3324 ft | 200 kts | 43° |
| 2026-05-05 17:00 | 52.07200 | 7.40714 | 3176 ft | 193 kts | 56° |
| 2026-05-05 17:00 | 52.07849 | 7.42569 | 3028 ft | 187 kts | 64° |
| 2026-05-05 17:01 | 52.08364 | 7.44492 | 3020 ft | 182 kts | 66° |
| 2026-05-05 17:01 | 52.08810 | 7.46356 | 2865 ft | 174 kts | 68° |
| 2026-05-05 17:01 | 52.09203 | 7.48166 | 2607 ft | 170 kts | 69° |
| 2026-05-05 17:01 | 52.09579 | 7.49960 | 2371 ft | 165 kts | 69° |
| 2026-05-05 17:02 | 52.09929 | 7.51656 | 2137 ft | 152 kts | 69° |
| 2026-05-05 17:02 | 52.10255 | 7.53222 | 1921 ft | 138 kts | 69° |
| 2026-05-05 17:02 | 52.10550 | 7.54641 | 1730 ft | 132 kts | 68° |
| 2026-05-05 17:02 | 52.10847 | 7.56061 | 1560 ft | 131 kts | 68° |
| 2026-05-05 17:03 | 52.11140 | 7.57455 | 1394 ft | 131 kts | 68° |
| 2026-05-05 17:03 | 52.11435 | 7.58856 | 1228 ft | 130 kts | 68° |
| 2026-05-05 17:03 | 52.11727 | 7.60243 | 1059 ft | 130 kts | 69° |
| 2026-05-05 17:03 | 52.12015 | 7.61622 | 874 ft | 127 kts | 68° |
| 2026-05-05 17:04 | 52.12305 | 7.62957 | 687 ft | 128 kts | 68° |
| 2026-05-05 17:04 | 52.12594 | 7.64336 | 573 ft | 131 kts | 69° |
| 2026-05-05 17:04 | 52.12891 | 7.65800 | 379 ft | 137 kts | 68° |
| 2026-05-05 17:04 | 52.13195 | 7.67222 | 183 ft | 131 kts | 68° |
| 2026-05-05 17:05 | 52.13459 | 7.68461 | 165 ft | 92 kts | 71° |
| 2026-05-05 17:05 | 52.13617 | 7.69210 | 164 ft | 56 kts | 69° |
| 2026-05-05 17:05 | 52.13732 | 7.69741 | 164 ft | 32 kts | 71° |
| 2026-05-05 17:05 | 52.13758 | 7.69959 | 164 ft | 9 kts | 140° |
| 2026-05-05 17:06 | 52.13693 | 7.70022 | 164 ft | 16 kts | 156° |
| 2026-05-05 17:06 | 52.13586 | 7.69878 | 164 ft | 27 kts | 252° |
| 2026-05-05 17:06 | 52.13525 | 7.69587 | 164 ft | 26 kts | 252° |
| 2026-05-05 17:06 | 52.13463 | 7.69298 | 164 ft | 21 kts | 250° |
| 2026-05-05 17:07 | 52.13341 | 7.69272 | 164 ft | 20 kts | 160° |
| 2026-05-05 17:07 | 52.13227 | 7.69329 | 164 ft | 9 kts | 181° |
| 2026-05-05 17:07 | 52.13161 | 7.69301 | 164 ft | 10 kts | 196° |
| 2026-05-05 17:07 | 52.13152 | 7.69296 | 164 ft | 0 kts | 196° |